Share

Gassim, السعودية

01:20 AM AST on ابریل 25, 2014 (GMT +0300)
Gassim (OEGS) Elev 2126 ft | 26.30 °N, 43.77 °E | Change Station

Current weather conditions updated 20 minutes ago

Scattered Clouds
غيوم متفرقة
86 °F
Feels Like 84 °F
N
12
ريح متغير ريح from ENE
شروق الشمس 5:32 AM
غروب الشمس 6:33 PM
قمر الهلال الأخير

Today is forecast to be Warmer than yesterday.

الضغط 29.92 في
وضوح الرؤية 3.1 أميال
سحابات غيوم متفرقة 4000 ft
مؤشر الحرارة 84 °F
نقطة الندى 55 °F
الرطوبة 35%
Rainfall 0.00 في
عمق الثلج Not available.
الأشعة فوق البنفسجية 0 out of 16
Pollen Not available.
جودة الهواء Not available.
Flu Activity Not available.
METAR OEGS 242200Z 07010KT 5000 DU SCT040 30/13 Q1013

More Conditions Fewer Conditions

الضغط 29.92 في
وضوح الرؤية 3.1 أميال
سحابات غيوم متفرقة 4000 ft
مؤشر الحرارة 84 °F
نقطة الندى 55 °F
الرطوبة 35%
Rainfall 0.00 في
عمق الثلج Not available.
الأشعة فوق البنفسجية 0 out of 16
Pollen Not available.
جودة الهواء Not available.
Flu Activity Not available.
METAR OEGS 242200Z 07010KT 5000 DU SCT040 30/13 Q1013

More Conditions Fewer Conditions

10-Day Weather Forecast

Almanac

علم الفلك

Apr. 25, 2014 Rise Set
Actual Time 5:32 AM AST 6:33 PM AST
Civil Twilight 5:08 AM AST 6:57 PM AST
Nautical Twilight 4:40 AM AST 7:26 PM AST
Astronomical Twilight 4:11 AM AST 7:55 PM AST
قمر 2:41 AM AST (4/25) 2:53 PM AST (4/25)
Length Of Visible Light 13h 49m
طول الیوم
13h 00m
Tomorrow will be 1m 23s longer.
الهلال الأخير, 22% of the Moon is Illuminated
Apr 24
الهلال الأخير
Apr 29
New
May 6
الربع الاول
May 14
بدر
May 21
الربع الآخر

Yesterday's Extremes

Country Highs Country Lows

Community

  • Jone Runs Falls
    Jone Runs Falls
  • Easter in Shenandoah National Park
    Easter in Shenandoah National Park
  • Sunset at Apalachicola Bay, Florida
    Sunset at Apalachicola Bay, Florida
  • Clouds mov'n in
    Clouds mov'n in
  • Stacked
    Stacked

WunderPhotos

Upload Photos

1,704,732 photos uploaded!

Nearby

جودة الهواء

Not available.

عمق الثلج

Not available.

Coastal Water Temperatures

مكان درجات الحرارة
No Stations Reporting

Earthquake Activity

City Distance Mag. Time & Date
No recent earthquake activity has been reported nearby.
Minimum magnitude displayed is 2.5.

Nearby Weather Stations

There are no personal weather stations in this area.

What do you think?

We're not finished. Please let us know what you like, what you don't like, and what you are still missing.